Brownsville, Washington
Current Conditions -  °F | °C
As of 12:35 AM on Saturday 22 Nov 2014 (Local Time) from KPWT Reporting Station
Clear Clear  
Wind Chill: 37°   Ceiling: Unl
Heat Index: 43°   Visibility: 10mi
Dew Point: 43°   Wind: 12mph
Humidity: 100%   Direction: 180°S
Pressure: 29.54"   Gusts: NA
Location:  47.5964°N, 122.62°W
Report Text: KPWT 220835Z AUTO 18010KT 10SM CLR 06/06 A2954 RMK AO1
Loading
Personal Weather Stations






























Interactive Weather Map New forecast layout! Learn more

10-Day Weather Forecast

Advertisements
Track Severe Weather on mobile